sensor_id;sensor_type;location;lat;lon;timestamp;P1;durP1;ratioP1;P2;durP2;ratioP2
77591;SDS011;66891;46.884;17.436;2024-02-21T00:00:40;5.45;;;0.75;;
77591;SDS011;66891;46.884;17.436;2024-02-21T00:03:09;6.35;;;1.08;;
77591;SDS011;66891;46.884;17.436;2024-02-21T00:05:36;8.30;;;1.70;;
77591;SDS011;66891;46.884;17.436;2024-02-21T00:08:04;8.18;;;1.90;;
77591;SDS011;66891;46.884;17.436;2024-02-21T00:10:31;8.63;;;2.28;;
77591;SDS011;66891;46.884;17.436;2024-02-21T00:12:59;11.30;;;3.22;;
77591;SDS011;66891;46.884;17.436;2024-02-21T00:15:28;20.08;;;6.43;;
77591;SDS011;66891;46.884;17.436;2024-02-21T00:17:55;28.73;;;8.90;;
77591;SDS011;66891;46.884;17.436;2024-02-21T00:20:24;46.55;;;14.60;;
77591;SDS011;66891;46.884;17.436;2024-02-21T00:22:52;36.78;;;13.07;;
77591;SDS011;66891;46.884;17.436;2024-02-21T00:25:19;37.75;;;10.93;;
77591;SDS011;66891;46.884;17.436;2024-02-21T00:27:47;23.63;;;8.55;;
77591;SDS011;66891;46.884;17.436;2024-02-21T00:30:13;20.60;;;7.13;;
77591;SDS011;66891;46.884;17.436;2024-02-21T00:32:40;15.50;;;5.38;;
77591;SDS011;66891;46.884;17.436;2024-02-21T00:35:08;12.63;;;4.35;;
77591;SDS011;66891;46.884;17.436;2024-02-21T00:37:36;7.82;;;1.92;;
77591;SDS011;66891;46.884;17.436;2024-02-21T00:40:04;7.68;;;1.20;;
77591;SDS011;66891;46.884;17.436;2024-02-21T00:42:31;6.33;;;1.00;;
77591;SDS011;66891;46.884;17.436;2024-02-21T00:44:58;9.48;;;1.15;;
77591;SDS011;66891;46.884;17.436;2024-02-21T00:47:25;5.95;;;0.98;;
77591;SDS011;66891;46.884;17.436;2024-02-21T00:49:52;7.57;;;1.13;;
77591;SDS011;66891;46.884;17.436;2024-02-21T00:52:19;7.15;;;1.00;;
77591;SDS011;66891;46.884;17.436;2024-02-21T00:54:48;6.57;;;0.90;;
77591;SDS011;66891;46.884;17.436;2024-02-21T00:57:20;8.73;;;0.90;;
77591;SDS011;66891;46.884;17.436;2024-02-21T00:59:47;7.30;;;1.15;;
77591;SDS011;66891;46.884;17.436;2024-02-21T01:02:14;7.80;;;0.98;;
77591;SDS011;66891;46.884;17.436;2024-02-21T01:04:41;7.00;;;1.10;;
77591;SDS011;66891;46.884;17.436;2024-02-21T01:07:08;6.83;;;1.00;;
77591;SDS011;66891;46.884;17.436;2024-02-21T01:09:35;7.95;;;1.48;;
77591;SDS011;66891;46.884;17.436;2024-02-21T01:12:03;8.48;;;1.30;;
77591;SDS011;66891;46.884;17.436;2024-02-21T01:14:30;6.72;;;1.13;;
77591;SDS011;66891;46.884;17.436;2024-02-21T01:16:57;7.88;;;1.50;;
77591;SDS011;66891;46.884;17.436;2024-02-21T01:19:24;7.30;;;1.10;;
77591;SDS011;66891;46.884;17.436;2024-02-21T01:21:51;8.45;;;0.98;;
77591;SDS011;66891;46.884;17.436;2024-02-21T01:24:18;6.55;;;1.08;;
77591;SDS011;66891;46.884;17.436;2024-02-21T01:26:47;5.90;;;0.80;;
77591;SDS011;66891;46.884;17.436;2024-02-21T01:29:16;6.18;;;1.20;;
77591;SDS011;66891;46.884;17.436;2024-02-21T01:31:43;7.10;;;1.00;;
77591;SDS011;66891;46.884;17.436;2024-02-21T01:34:10;6.85;;;0.90;;
77591;SDS011;66891;46.884;17.436;2024-02-21T01:36:37;7.80;;;0.93;;
77591;SDS011;66891;46.884;17.436;2024-02-21T01:39:04;6.13;;;1.05;;
77591;SDS011;66891;46.884;17.436;2024-02-21T01:41:31;6.05;;;0.85;;
77591;SDS011;66891;46.884;17.436;2024-02-21T01:43:58;9.60;;;1.17;;
77591;SDS011;66891;46.884;17.436;2024-02-21T01:46:26;7.72;;;0.98;;
77591;SDS011;66891;46.884;17.436;2024-02-21T01:48:57;6.75;;;1.00;;
77591;SDS011;66891;46.884;17.436;2024-02-21T01:51:24;7.85;;;1.38;;
77591;SDS011;66891;46.884;17.436;2024-02-21T01:53:52;6.53;;;1.00;;
77591;SDS011;66891;46.884;17.436;2024-02-21T01:56:19;8.63;;;1.27;;
77591;SDS011;66891;46.884;17.436;2024-02-21T01:58:46;7.90;;;2.15;;
77591;SDS011;66891;46.884;17.436;2024-02-21T02:01:14;9.68;;;1.85;;
77591;SDS011;66891;46.884;17.436;2024-02-21T02:03:48;10.85;;;1.85;;
77591;SDS011;66891;46.884;17.436;2024-02-21T02:06:15;10.02;;;2.10;;
77591;SDS011;66891;46.884;17.436;2024-02-21T02:08:43;9.23;;;2.10;;
77591;SDS011;66891;46.884;17.436;2024-02-21T02:11:10;9.45;;;1.95;;
77591;SDS011;66891;46.884;17.436;2024-02-21T02:13:37;8.25;;;1.73;;
77591;SDS011;66891;46.884;17.436;2024-02-21T02:16:05;8.50;;;1.80;;
77591;SDS011;66891;46.884;17.436;2024-02-21T02:18:32;11.27;;;2.28;;
77591;SDS011;66891;46.884;17.436;2024-02-21T02:21:00;8.03;;;1.97;;
77591;SDS011;66891;46.884;17.436;2024-02-21T02:23:29;9.20;;;1.50;;
77591;SDS011;66891;46.884;17.436;2024-02-21T02:25:56;10.57;;;2.50;;
77591;SDS011;66891;46.884;17.436;2024-02-21T02:28:24;8.73;;;1.88;;
77591;SDS011;66891;46.884;17.436;2024-02-21T02:30:51;9.02;;;1.92;;
77591;SDS011;66891;46.884;17.436;2024-02-21T02:33:18;7.83;;;1.80;;
77591;SDS011;66891;46.884;17.436;2024-02-21T02:35:46;8.70;;;1.60;;
77591;SDS011;66891;46.884;17.436;2024-02-21T02:38:13;10.02;;;2.40;;
77591;SDS011;66891;46.884;17.436;2024-02-21T02:40:42;8.82;;;1.95;;
77591;SDS011;66891;46.884;17.436;2024-02-21T02:43:09;8.32;;;2.00;;
77591;SDS011;66891;46.884;17.436;2024-02-21T02:45:36;8.57;;;1.80;;
77591;SDS011;66891;46.884;17.436;2024-02-21T02:48:03;9.48;;;2.72;;
77591;SDS011;66891;46.884;17.436;2024-02-21T02:50:31;8.85;;;1.88;;
77591;SDS011;66891;46.884;17.436;2024-02-21T02:52:59;10.40;;;1.80;;
77591;SDS011;66891;46.884;17.436;2024-02-21T02:55:26;8.00;;;1.83;;
77591;SDS011;66891;46.884;17.436;2024-02-21T02:57:55;9.20;;;1.63;;
77591;SDS011;66891;46.884;17.436;2024-02-21T03:00:22;9.60;;;1.60;;
77591;SDS011;66891;46.884;17.436;2024-02-21T03:02:50;8.00;;;1.50;;
77591;SDS011;66891;46.884;17.436;2024-02-21T03:05:18;7.88;;;1.85;;
77591;SDS011;66891;46.884;17.436;2024-02-21T03:07:45;8.52;;;1.60;;
77591;SDS011;66891;46.884;17.436;2024-02-21T03:10:13;8.87;;;1.53;;
77591;SDS011;66891;46.884;17.436;2024-02-21T03:12:41;7.60;;;1.60;;
77591;SDS011;66891;46.884;17.436;2024-02-21T03:15:10;8.73;;;1.45;;
77591;SDS011;66891;46.884;17.436;2024-02-21T03:17:37;9.63;;;1.52;;
77591;SDS011;66891;46.884;17.436;2024-02-21T03:20:05;10.13;;;1.70;;
77591;SDS011;66891;46.884;17.436;2024-02-21T03:22:36;9.10;;;1.73;;
77591;SDS011;66891;46.884;17.436;2024-02-21T03:25:03;6.97;;;1.60;;
77591;SDS011;66891;46.884;17.436;2024-02-21T03:27:30;9.90;;;1.83;;
77591;SDS011;66891;46.884;17.436;2024-02-21T03:29:57;7.63;;;1.70;;
77591;SDS011;66891;46.884;17.436;2024-02-21T03:32:25;9.63;;;1.83;;
77591;SDS011;66891;46.884;17.436;2024-02-21T03:34:52;9.03;;;1.63;;
77591;SDS011;66891;46.884;17.436;2024-02-21T03:37:20;7.70;;;1.40;;
77591;SDS011;66891;46.884;17.436;2024-02-21T03:39:47;8.27;;;1.83;;
77591;SDS011;66891;46.884;17.436;2024-02-21T03:42:14;8.32;;;1.63;;
77591;SDS011;66891;46.884;17.436;2024-02-21T03:44:40;8.65;;;1.95;;
77591;SDS011;66891;46.884;17.436;2024-02-21T03:47:07;7.30;;;1.87;;
77591;SDS011;66891;46.884;17.436;2024-02-21T03:49:38;9.07;;;1.85;;
77591;SDS011;66891;46.884;17.436;2024-02-21T03:52:06;8.70;;;1.88;;
77591;SDS011;66891;46.884;17.436;2024-02-21T03:54:33;7.93;;;1.85;;
77591;SDS011;66891;46.884;17.436;2024-02-21T03:57:00;9.13;;;1.75;;
77591;SDS011;66891;46.884;17.436;2024-02-21T03:59:27;9.60;;;2.20;;
77591;SDS011;66891;46.884;17.436;2024-02-21T04:01:54;10.32;;;2.25;;
77591;SDS011;66891;46.884;17.436;2024-02-21T04:04:21;9.18;;;2.50;;
77591;SDS011;66891;46.884;17.436;2024-02-21T04:06:50;10.60;;;2.92;;
77591;SDS011;66891;46.884;17.436;2024-02-21T04:09:17;11.00;;;3.03;;
77591;SDS011;66891;46.884;17.436;2024-02-21T04:11:44;9.77;;;2.93;;
77591;SDS011;66891;46.884;17.436;2024-02-21T04:14:11;11.23;;;2.83;;
77591;SDS011;66891;46.884;17.436;2024-02-21T04:16:38;15.82;;;4.45;;
77591;SDS011;66891;46.884;17.436;2024-02-21T04:19:06;12.43;;;3.65;;
77591;SDS011;66891;46.884;17.436;2024-02-21T04:21:34;15.05;;;4.28;;
77591;SDS011;66891;46.884;17.436;2024-02-21T04:24:04;17.37;;;5.53;;
77591;SDS011;66891;46.884;17.436;2024-02-21T04:26:33;20.13;;;5.55;;
77591;SDS011;66891;46.884;17.436;2024-02-21T04:29:00;17.48;;;5.32;;
77591;SDS011;66891;46.884;17.436;2024-02-21T04:31:28;18.42;;;4.90;;
77591;SDS011;66891;46.884;17.436;2024-02-21T04:33:55;16.77;;;4.47;;
77591;SDS011;66891;46.884;17.436;2024-02-21T04:36:22;17.37;;;4.87;;
77591;SDS011;66891;46.884;17.436;2024-02-21T04:38:49;17.58;;;5.03;;
77591;SDS011;66891;46.884;17.436;2024-02-21T04:41:18;13.10;;;3.88;;
77591;SDS011;66891;46.884;17.436;2024-02-21T04:43:46;12.93;;;3.33;;
77591;SDS011;66891;46.884;17.436;2024-02-21T04:46:13;12.57;;;3.40;;
77591;SDS011;66891;46.884;17.436;2024-02-21T04:48:40;11.40;;;2.60;;
77591;SDS011;66891;46.884;17.436;2024-02-21T04:51:07;8.38;;;2.20;;
77591;SDS011;66891;46.884;17.436;2024-02-21T04:53:36;8.90;;;2.17;;
77591;SDS011;66891;46.884;17.436;2024-02-21T04:56:03;10.30;;;2.17;;
77591;SDS011;66891;46.884;17.436;2024-02-21T04:58:32;9.73;;;2.28;;
77591;SDS011;66891;46.884;17.436;2024-02-21T05:00:59;11.97;;;2.70;;
77591;SDS011;66891;46.884;17.436;2024-02-21T05:03:26;10.18;;;2.60;;
77591;SDS011;66891;46.884;17.436;2024-02-21T05:05:53;11.52;;;2.80;;
77591;SDS011;66891;46.884;17.436;2024-02-21T05:08:20;12.20;;;2.70;;
77591;SDS011;66891;46.884;17.436;2024-02-21T05:10:47;9.80;;;2.20;;
77591;SDS011;66891;46.884;17.436;2024-02-21T05:13:15;11.80;;;2.60;;
77591;SDS011;66891;46.884;17.436;2024-02-21T05:15:43;11.88;;;2.88;;
77591;SDS011;66891;46.884;17.436;2024-02-21T05:18:10;12.50;;;3.65;;
77591;SDS011;66891;46.884;17.436;2024-02-21T05:20:38;15.55;;;4.95;;
77591;SDS011;66891;46.884;17.436;2024-02-21T05:23:05;15.30;;;5.80;;
77591;SDS011;66891;46.884;17.436;2024-02-21T05:25:32;24.90;;;9.27;;
77591;SDS011;66891;46.884;17.436;2024-02-21T05:27:59;18.95;;;7.38;;
77591;SDS011;66891;46.884;17.436;2024-02-21T05:30:29;16.75;;;5.35;;
77591;SDS011;66891;46.884;17.436;2024-02-21T05:32:57;14.63;;;5.70;;
77591;SDS011;66891;46.884;17.436;2024-02-21T05:35:25;16.20;;;6.50;;
77591;SDS011;66891;46.884;17.436;2024-02-21T05:37:52;18.30;;;7.33;;
77591;SDS011;66891;46.884;17.436;2024-02-21T05:40:19;16.95;;;6.22;;
77591;SDS011;66891;46.884;17.436;2024-02-21T05:42:46;18.02;;;5.60;;
77591;SDS011;66891;46.884;17.436;2024-02-21T05:45:13;13.10;;;4.60;;
77591;SDS011;66891;46.884;17.436;2024-02-21T05:47:42;14.63;;;5.10;;
77591;SDS011;66891;46.884;17.436;2024-02-21T05:50:11;27.43;;;12.00;;
77591;SDS011;66891;46.884;17.436;2024-02-21T05:52:38;24.48;;;10.65;;
77591;SDS011;66891;46.884;17.436;2024-02-21T05:55:06;29.08;;;11.35;;
77591;SDS011;66891;46.884;17.436;2024-02-21T05:57:33;26.05;;;10.48;;
77591;SDS011;66891;46.884;17.436;2024-02-21T06:00:03;22.60;;;8.95;;
77591;SDS011;66891;46.884;17.436;2024-02-21T06:02:31;27.37;;;8.70;;
77591;SDS011;66891;46.884;17.436;2024-02-21T06:04:58;20.23;;;8.32;;
77591;SDS011;66891;46.884;17.436;2024-02-21T06:07:27;19.73;;;6.80;;
77591;SDS011;66891;46.884;17.436;2024-02-21T06:09:54;20.38;;;7.63;;
77591;SDS011;66891;46.884;17.436;2024-02-21T06:12:21;21.08;;;7.97;;
77591;SDS011;66891;46.884;17.436;2024-02-21T06:14:48;20.33;;;7.80;;
77591;SDS011;66891;46.884;17.436;2024-02-21T06:17:15;23.08;;;8.52;;
77591;SDS011;66891;46.884;17.436;2024-02-21T06:19:42;35.50;;;13.05;;
77591;SDS011;66891;46.884;17.436;2024-02-21T06:22:10;30.45;;;11.40;;
77591;SDS011;66891;46.884;17.436;2024-02-21T06:24:38;21.02;;;7.90;;
77591;SDS011;66891;46.884;17.436;2024-02-21T06:27:05;15.73;;;5.43;;
77591;SDS011;66891;46.884;17.436;2024-02-21T06:29:36;17.23;;;5.95;;
77591;SDS011;66891;46.884;17.436;2024-02-21T06:32:03;13.98;;;5.32;;
77591;SDS011;66891;46.884;17.436;2024-02-21T06:34:31;13.13;;;5.32;;
77591;SDS011;66891;46.884;17.436;2024-02-21T06:37:00;14.27;;;5.75;;
77591;SDS011;66891;46.884;17.436;2024-02-21T06:39:27;13.93;;;5.50;;
77591;SDS011;66891;46.884;17.436;2024-02-21T06:41:57;12.52;;;4.82;;
77591;SDS011;66891;46.884;17.436;2024-02-21T06:44:29;13.73;;;4.80;;
77591;SDS011;66891;46.884;17.436;2024-02-21T06:46:56;14.55;;;4.82;;
77591;SDS011;66891;46.884;17.436;2024-02-21T06:49:26;10.23;;;3.85;;
77591;SDS011;66891;46.884;17.436;2024-02-21T06:51:53;12.30;;;4.80;;
77591;SDS011;66891;46.884;17.436;2024-02-21T06:54:20;21.45;;;8.13;;
77591;SDS011;66891;46.884;17.436;2024-02-21T06:56:47;36.63;;;14.63;;
77591;SDS011;66891;46.884;17.436;2024-02-21T06:59:16;24.13;;;10.43;;
77591;SDS011;66891;46.884;17.436;2024-02-21T07:01:44;18.77;;;7.25;;
77591;SDS011;66891;46.884;17.436;2024-02-21T07:04:11;29.57;;;10.20;;
77591;SDS011;66891;46.884;17.436;2024-02-21T07:06:38;27.63;;;10.05;;
77591;SDS011;66891;46.884;17.436;2024-02-21T07:09:06;25.35;;;9.38;;
77591;SDS011;66891;46.884;17.436;2024-02-21T07:11:33;38.28;;;15.25;;
77591;SDS011;66891;46.884;17.436;2024-02-21T07:14:02;66.05;;;27.27;;
77591;SDS011;66891;46.884;17.436;2024-02-21T07:16:31;24.47;;;9.07;;
77591;SDS011;66891;46.884;17.436;2024-02-21T07:19:00;47.05;;;21.00;;
77591;SDS011;66891;46.884;17.436;2024-02-21T07:21:28;51.25;;;22.42;;
77591;SDS011;66891;46.884;17.436;2024-02-21T07:23:55;51.72;;;24.05;;
77591;SDS011;66891;46.884;17.436;2024-02-21T07:26:22;45.67;;;22.15;;
77591;SDS011;66891;46.884;17.436;2024-02-21T07:28:49;41.53;;;21.27;;
77591;SDS011;66891;46.884;17.436;2024-02-21T07:31:16;34.58;;;17.75;;
77591;SDS011;66891;46.884;17.436;2024-02-21T07:33:45;26.42;;;14.60;;
77591;SDS011;66891;46.884;17.436;2024-02-21T07:36:15;27.52;;;14.50;;
77591;SDS011;66891;46.884;17.436;2024-02-21T07:38:42;27.23;;;14.25;;
77591;SDS011;66891;46.884;17.436;2024-02-21T07:41:09;30.17;;;14.07;;
77591;SDS011;66891;46.884;17.436;2024-02-21T07:43:36;27.38;;;14.10;;
77591;SDS011;66891;46.884;17.436;2024-02-21T07:46:10;31.58;;;14.00;;
77591;SDS011;66891;46.884;17.436;2024-02-21T07:48:46;27.83;;;13.43;;
77591;SDS011;66891;46.884;17.436;2024-02-21T07:51:15;29.98;;;14.85;;
77591;SDS011;66891;46.884;17.436;2024-02-21T07:53:46;30.07;;;13.23;;
77591;SDS011;66891;46.884;17.436;2024-02-21T07:56:14;28.35;;;13.77;;
77591;SDS011;66891;46.884;17.436;2024-02-21T07:58:42;32.35;;;14.88;;
77591;SDS011;66891;46.884;17.436;2024-02-21T08:01:10;25.98;;;12.15;;
77591;SDS011;66891;46.884;17.436;2024-02-21T08:03:38;28.67;;;11.32;;
77591;SDS011;66891;46.884;17.436;2024-02-21T08:06:11;24.30;;;11.37;;
77591;SDS011;66891;46.884;17.436;2024-02-21T08:08:40;23.65;;;9.73;;
77591;SDS011;66891;46.884;17.436;2024-02-21T08:11:07;20.42;;;8.82;;
77591;SDS011;66891;46.884;17.436;2024-02-21T08:13:34;22.42;;;10.05;;
77591;SDS011;66891;46.884;17.436;2024-02-21T08:16:01;27.70;;;10.23;;
77591;SDS011;66891;46.884;17.436;2024-02-21T08:18:28;22.03;;;10.27;;
77591;SDS011;66891;46.884;17.436;2024-02-21T08:20:56;23.70;;;11.23;;
77591;SDS011;66891;46.884;17.436;2024-02-21T08:23:24;23.75;;;11.68;;
77591;SDS011;66891;46.884;17.436;2024-02-21T08:25:51;26.38;;;13.13;;
77591;SDS011;66891;46.884;17.436;2024-02-21T08:28:18;42.83;;;21.02;;
77591;SDS011;66891;46.884;17.436;2024-02-21T08:30:45;40.80;;;20.20;;
77591;SDS011;66891;46.884;17.436;2024-02-21T08:33:15;17.35;;;7.80;;
77591;SDS011;66891;46.884;17.436;2024-02-21T08:35:43;23.30;;;11.30;;
77591;SDS011;66891;46.884;17.436;2024-02-21T08:38:10;19.90;;;9.45;;
77591;SDS011;66891;46.884;17.436;2024-02-21T08:40:38;15.85;;;6.60;;
77591;SDS011;66891;46.884;17.436;2024-02-21T08:43:05;13.67;;;5.93;;
77591;SDS011;66891;46.884;17.436;2024-02-21T08:45:33;14.10;;;5.80;;
77591;SDS011;66891;46.884;17.436;2024-02-21T08:48:00;17.75;;;6.80;;
77591;SDS011;66891;46.884;17.436;2024-02-21T08:50:27;15.10;;;5.93;;
77591;SDS011;66891;46.884;17.436;2024-02-21T08:52:55;13.95;;;6.20;;
77591;SDS011;66891;46.884;17.436;2024-02-21T08:55:23;17.37;;;6.10;;
77591;SDS011;66891;46.884;17.436;2024-02-21T08:57:52;19.58;;;7.75;;
77591;SDS011;66891;46.884;17.436;2024-02-21T09:00:19;16.52;;;7.70;;
77591;SDS011;66891;46.884;17.436;2024-02-21T09:02:51;18.10;;;6.90;;
77591;SDS011;66891;46.884;17.436;2024-02-21T09:05:18;20.45;;;6.95;;
77591;SDS011;66891;46.884;17.436;2024-02-21T09:07:46;15.10;;;6.60;;
77591;SDS011;66891;46.884;17.436;2024-02-21T09:10:13;14.73;;;6.47;;
77591;SDS011;66891;46.884;17.436;2024-02-21T09:12:40;16.70;;;7.53;;
77591;SDS011;66891;46.884;17.436;2024-02-21T09:15:09;27.08;;;13.68;;
77591;SDS011;66891;46.884;17.436;2024-02-21T09:17:37;20.98;;;10.05;;
77591;SDS011;66891;46.884;17.436;2024-02-21T09:20:06;22.30;;;9.20;;
77591;SDS011;66891;46.884;17.436;2024-02-21T09:22:34;15.48;;;6.22;;
77591;SDS011;66891;46.884;17.436;2024-02-21T09:25:02;11.55;;;3.17;;
77591;SDS011;66891;46.884;17.436;2024-02-21T09:27:30;10.23;;;3.28;;
77591;SDS011;66891;46.884;17.436;2024-02-21T09:29:57;9.75;;;2.80;;
77591;SDS011;66891;46.884;17.436;2024-02-21T09:32:26;11.70;;;3.83;;
77591;SDS011;66891;46.884;17.436;2024-02-21T09:34:53;8.23;;;2.58;;
77591;SDS011;66891;46.884;17.436;2024-02-21T09:37:27;9.70;;;2.65;;
77591;SDS011;66891;46.884;17.436;2024-02-21T09:39:57;9.40;;;2.55;;
77591;SDS011;66891;46.884;17.436;2024-02-21T09:42:31;7.00;;;2.10;;
77591;SDS011;66891;46.884;17.436;2024-02-21T09:45:04;11.77;;;2.90;;
77591;SDS011;66891;46.884;17.436;2024-02-21T09:47:39;12.50;;;3.83;;
77591;SDS011;66891;46.884;17.436;2024-02-21T09:50:08;10.00;;;3.10;;
77591;SDS011;66891;46.884;17.436;2024-02-21T09:52:36;10.35;;;3.70;;
77591;SDS011;66891;46.884;17.436;2024-02-21T09:55:04;9.52;;;3.40;;
77591;SDS011;66891;46.884;17.436;2024-02-21T09:57:31;10.50;;;3.07;;
77591;SDS011;66891;46.884;17.436;2024-02-21T09:59:58;9.48;;;2.80;;
77591;SDS011;66891;46.884;17.436;2024-02-21T10:02:27;10.05;;;3.17;;
77591;SDS011;66891;46.884;17.436;2024-02-21T10:04:56;8.55;;;2.67;;
77591;SDS011;66891;46.884;17.436;2024-02-21T10:07:25;10.10;;;2.97;;
77591;SDS011;66891;46.884;17.436;2024-02-21T10:10:00;11.23;;;3.13;;
77591;SDS011;66891;46.884;17.436;2024-02-21T10:12:27;12.20;;;3.92;;
77591;SDS011;66891;46.884;17.436;2024-02-21T10:14:59;10.07;;;3.60;;
77591;SDS011;66891;46.884;17.436;2024-02-21T10:17:26;11.98;;;3.80;;
77591;SDS011;66891;46.884;17.436;2024-02-21T10:19:53;9.45;;;3.00;;
77591;SDS011;66891;46.884;17.436;2024-02-21T10:22:22;9.17;;;3.10;;
77591;SDS011;66891;46.884;17.436;2024-02-21T10:24:50;8.43;;;2.50;;
77591;SDS011;66891;46.884;17.436;2024-02-21T10:27:23;9.73;;;2.33;;
77591;SDS011;66891;46.884;17.436;2024-02-21T10:29:50;8.38;;;2.28;;
77591;SDS011;66891;46.884;17.436;2024-02-21T10:32:19;7.82;;;2.10;;
77591;SDS011;66891;46.884;17.436;2024-02-21T10:34:47;9.40;;;2.57;;
77591;SDS011;66891;46.884;17.436;2024-02-21T10:37:19;10.30;;;3.08;;
77591;SDS011;66891;46.884;17.436;2024-02-21T10:39:49;10.05;;;3.05;;
77591;SDS011;66891;46.884;17.436;2024-02-21T10:42:22;9.82;;;3.17;;
77591;SDS011;66891;46.884;17.436;2024-02-21T10:44:50;9.35;;;3.10;;
77591;SDS011;66891;46.884;17.436;2024-02-21T10:47:18;12.27;;;3.33;;
77591;SDS011;66891;46.884;17.436;2024-02-21T10:49:49;9.65;;;2.60;;
77591;SDS011;66891;46.884;17.436;2024-02-21T10:52:19;8.02;;;2.00;;
77591;SDS011;66891;46.884;17.436;2024-02-21T10:54:53;6.88;;;1.27;;
77591;SDS011;66891;46.884;17.436;2024-02-21T10:57:23;9.13;;;2.22;;
77591;SDS011;66891;46.884;17.436;2024-02-21T10:59:51;8.47;;;1.87;;
77591;SDS011;66891;46.884;17.436;2024-02-21T11:02:20;8.85;;;1.90;;
77591;SDS011;66891;46.884;17.436;2024-02-21T11:04:47;8.18;;;2.03;;
77591;SDS011;66891;46.884;17.436;2024-02-21T11:07:15;8.43;;;1.90;;
77591;SDS011;66891;46.884;17.436;2024-02-21T11:09:50;8.00;;;1.85;;
77591;SDS011;66891;46.884;17.436;2024-02-21T11:12:19;9.83;;;1.70;;
77591;SDS011;66891;46.884;17.436;2024-02-21T11:14:46;6.97;;;1.60;;
77591;SDS011;66891;46.884;17.436;2024-02-21T11:17:17;7.45;;;1.50;;
77591;SDS011;66891;46.884;17.436;2024-02-21T11:19:46;9.13;;;1.58;;
77591;SDS011;66891;46.884;17.436;2024-02-21T11:22:14;6.78;;;1.50;;
77591;SDS011;66891;46.884;17.436;2024-02-21T11:24:41;8.57;;;1.90;;
77591;SDS011;66891;46.884;17.436;2024-02-21T11:27:15;8.27;;;1.10;;
77591;SDS011;66891;46.884;17.436;2024-02-21T11:29:44;7.10;;;1.50;;
77591;SDS011;66891;46.884;17.436;2024-02-21T11:32:13;7.32;;;1.60;;
77591;SDS011;66891;46.884;17.436;2024-02-21T11:34:41;6.80;;;2.15;;
77591;SDS011;66891;46.884;17.436;2024-02-21T11:37:15;6.83;;;1.40;;
77591;SDS011;66891;46.884;17.436;2024-02-21T11:39:45;7.28;;;1.83;;
77591;SDS011;66891;46.884;17.436;2024-02-21T11:42:14;8.38;;;1.85;;
77591;SDS011;66891;46.884;17.436;2024-02-21T11:44:42;9.25;;;2.03;;
77591;SDS011;66891;46.884;17.436;2024-02-21T11:47:13;8.38;;;2.08;;
77591;SDS011;66891;46.884;17.436;2024-02-21T11:49:43;7.33;;;1.30;;
77591;SDS011;66891;46.884;17.436;2024-02-21T11:52:10;6.15;;;1.33;;
77591;SDS011;66891;46.884;17.436;2024-02-21T11:54:37;6.97;;;1.02;;
77591;SDS011;66891;46.884;17.436;2024-02-21T11:57:04;7.63;;;1.77;;
77591;SDS011;66891;46.884;17.436;2024-02-21T11:59:31;10.75;;;2.67;;
77591;SDS011;66891;46.884;17.436;2024-02-21T12:01:58;15.33;;;5.07;;
77591;SDS011;66891;46.884;17.436;2024-02-21T12:04:27;8.48;;;1.98;;
77591;SDS011;66891;46.884;17.436;2024-02-21T12:06:56;9.43;;;2.08;;
77591;SDS011;66891;46.884;17.436;2024-02-21T12:09:23;9.07;;;1.90;;
77591;SDS011;66891;46.884;17.436;2024-02-21T12:11:57;8.05;;;1.90;;
77591;SDS011;66891;46.884;17.436;2024-02-21T12:14:24;10.17;;;2.70;;
77591;SDS011;66891;46.884;17.436;2024-02-21T12:16:54;11.18;;;2.30;;
77591;SDS011;66891;46.884;17.436;2024-02-21T12:19:21;12.93;;;3.45;;
77591;SDS011;66891;46.884;17.436;2024-02-21T12:21:50;15.20;;;3.15;;
77591;SDS011;66891;46.884;17.436;2024-02-21T12:24:21;9.38;;;2.28;;
77591;SDS011;66891;46.884;17.436;2024-02-21T12:26:50;20.03;;;8.10;;
77591;SDS011;66891;46.884;17.436;2024-02-21T12:29:17;8.95;;;2.47;;
77591;SDS011;66891;46.884;17.436;2024-02-21T12:31:44;7.45;;;2.10;;
77591;SDS011;66891;46.884;17.436;2024-02-21T12:34:14;7.90;;;1.75;;
77591;SDS011;66891;46.884;17.436;2024-02-21T12:36:42;11.80;;;2.72;;
77591;SDS011;66891;46.884;17.436;2024-02-21T12:39:13;8.10;;;2.43;;
77591;SDS011;66891;46.884;17.436;2024-02-21T12:41:42;10.90;;;3.38;;
77591;SDS011;66891;46.884;17.436;2024-02-21T12:44:11;10.88;;;3.33;;
77591;SDS011;66891;46.884;17.436;2024-02-21T12:46:42;12.52;;;3.78;;
77591;SDS011;66891;46.884;17.436;2024-02-21T12:49:09;8.35;;;2.40;;
77591;SDS011;66891;46.884;17.436;2024-02-21T12:51:37;8.63;;;2.00;;
77591;SDS011;66891;46.884;17.436;2024-02-21T12:54:06;8.88;;;2.38;;
77591;SDS011;66891;46.884;17.436;2024-02-21T12:56:34;10.05;;;2.90;;
77591;SDS011;66891;46.884;17.436;2024-02-21T12:59:01;10.32;;;2.80;;
77591;SDS011;66891;46.884;17.436;2024-02-21T13:01:31;7.97;;;2.65;;
77591;SDS011;66891;46.884;17.436;2024-02-21T13:03:59;10.80;;;2.60;;
77591;SDS011;66891;46.884;17.436;2024-02-21T13:06:27;10.45;;;2.80;;
77591;SDS011;66891;46.884;17.436;2024-02-21T13:08:56;9.18;;;2.33;;
77591;SDS011;66891;46.884;17.436;2024-02-21T13:11:23;11.18;;;2.97;;
77591;SDS011;66891;46.884;17.436;2024-02-21T13:13:55;8.45;;;2.17;;
77591;SDS011;66891;46.884;17.436;2024-02-21T13:16:22;12.13;;;3.27;;
77591;SDS011;66891;46.884;17.436;2024-02-21T13:18:49;9.65;;;2.13;;
77591;SDS011;66891;46.884;17.436;2024-02-21T13:21:16;9.50;;;2.72;;
77591;SDS011;66891;46.884;17.436;2024-02-21T13:23:44;8.80;;;2.60;;
77591;SDS011;66891;46.884;17.436;2024-02-21T13:26:11;7.32;;;2.30;;
77591;SDS011;66891;46.884;17.436;2024-02-21T13:28:39;10.43;;;3.43;;
77591;SDS011;66891;46.884;17.436;2024-02-21T13:31:07;7.57;;;2.10;;
77591;SDS011;66891;46.884;17.436;2024-02-21T13:33:34;11.07;;;3.90;;
77591;SDS011;66891;46.884;17.436;2024-02-21T13:36:03;11.40;;;2.78;;
77591;SDS011;66891;46.884;17.436;2024-02-21T13:38:30;9.63;;;2.92;;
77591;SDS011;66891;46.884;17.436;2024-02-21T13:40:57;8.00;;;2.10;;
77591;SDS011;66891;46.884;17.436;2024-02-21T13:43:27;8.48;;;1.88;;
77591;SDS011;66891;46.884;17.436;2024-02-21T13:45:55;6.90;;;1.77;;
77591;SDS011;66891;46.884;17.436;2024-02-21T13:48:24;7.38;;;1.90;;
77591;SDS011;66891;46.884;17.436;2024-02-21T13:50:51;6.65;;;1.63;;
77591;SDS011;66891;46.884;17.436;2024-02-21T13:53:18;8.00;;;2.00;;
77591;SDS011;66891;46.884;17.436;2024-02-21T13:55:45;11.25;;;2.67;;
77591;SDS011;66891;46.884;17.436;2024-02-21T13:58:12;8.90;;;2.03;;
77591;SDS011;66891;46.884;17.436;2024-02-21T14:00:40;9.30;;;2.40;;
77591;SDS011;66891;46.884;17.436;2024-02-21T14:03:08;17.00;;;5.65;;
77591;SDS011;66891;46.884;17.436;2024-02-21T14:05:38;11.23;;;3.37;;
77591;SDS011;66891;46.884;17.436;2024-02-21T14:08:09;11.95;;;3.30;;
77591;SDS011;66891;46.884;17.436;2024-02-21T14:10:37;11.45;;;4.05;;
77591;SDS011;66891;46.884;17.436;2024-02-21T14:13:04;10.18;;;3.30;;
77591;SDS011;66891;46.884;17.436;2024-02-21T14:15:31;11.73;;;3.40;;
77591;SDS011;66891;46.884;17.436;2024-02-21T14:17:59;10.00;;;2.13;;
77591;SDS011;66891;46.884;17.436;2024-02-21T14:20:26;8.48;;;2.53;;
77591;SDS011;66891;46.884;17.436;2024-02-21T14:22:56;7.05;;;1.50;;
77591;SDS011;66891;46.884;17.436;2024-02-21T14:25:23;7.68;;;1.90;;
77591;SDS011;66891;46.884;17.436;2024-02-21T14:27:51;11.68;;;3.03;;
77591;SDS011;66891;46.884;17.436;2024-02-21T14:30:18;12.20;;;3.30;;